Time;durP1;ratioP1;P1;durP2;ratioP2;P2;SDS_P1;SDS_P2;PMS_P1;PMS_P2;Temp;Humidity;BMP_temperature;BMP_pressure;BME280_temperature;BME280_humidity;BME280_pressure;Samples;Min_cycle;Max_cycle;Signal;HPM_P1;HPM_P2
2023/11/09 00:01:58;;;;;;;8.18;4.93;;;4.10;99.90;;;;;;6215292;23;20028;-83
2023/11/09 00:04:51;;;;;;;6.13;4.50;;;4.00;99.90;;;;;;6219697;22;20091;-84
2023/11/09 00:07:39;;;;;;;8.98;4.40;;;4.10;99.90;;;;;;6222618;23;20047;-83
2023/11/09 00:10:26;;;;;;;11.98;4.70;;;4.10;99.90;;;;;;6238226;22;20024;-81
2023/11/09 00:13:14;;;;;;;7.50;4.25;;;4.10;1.00;;;;;;6226947;23;20016;-84
2023/11/09 00:16:06;;;;;;;6.25;4.35;;;4.20;1.00;;;;;;6213550;23;20024;-84
2023/11/09 00:18:57;;;;;;;5.72;4.15;;;4.20;99.90;;;;;;6214527;23;20028;-81
2023/11/09 00:21:49;;;;;;;5.95;4.40;;;4.00;99.90;;;;;;6215020;23;20025;-83
2023/11/09 00:24:36;;;;;;;5.28;4.45;;;3.90;1.00;;;;;;6212492;23;20033;-84
2023/11/09 00:27:26;;;;;;;5.80;4.63;;;3.70;99.90;;;;;;6211337;23;20032;-80
2023/11/09 00:30:14;;;;;;;7.57;4.80;;;3.60;99.90;;;;;;6215953;23;20391;-80
2023/11/09 00:33:01;;;;;;;7.13;4.43;;;3.60;99.90;;;;;;6212397;23;20099;-83
2023/11/09 00:35:49;;;;;;;7.53;4.35;;;3.80;21.90;;;;;;6213717;23;20098;-84
2023/11/09 00:38:40;;;;;;;6.72;4.50;;;3.90;18.20;;;;;;6215350;23;20028;-84
2023/11/09 00:41:29;;;;;;;7.05;4.47;;;3.80;99.90;;;;;;6191667;23;20122;-84
2023/11/09 00:44:16;;;;;;;7.13;4.80;;;3.90;99.90;;;;;;6215495;23;20039;-85
2023/11/09 00:47:06;;;;;;;6.35;4.28;;;4.00;99.90;;;;;;6212423;23;20446;-81
2023/11/09 00:49:58;;;;;;;5.20;4.40;;;4.00;99.90;;;;;;6210555;23;20024;-83
2023/11/09 00:52:48;;;;;;;7.40;4.32;;;4.00;99.90;;;;;;6213198;23;20142;-82
2023/11/09 00:55:38;;;;;;;8.18;4.57;;;3.90;99.90;;;;;;6214041;23;20025;-83
2023/11/09 00:58:26;;;;;;;6.70;4.10;;;3.90;99.90;;;;;;6216057;22;20027;-84
2023/11/09 01:01:14;;;;;;;6.05;4.68;;;4.10;99.90;;;;;;6215221;23;20035;-83
2023/11/09 01:04:05;;;;;;;7.35;3.78;;;4.40;99.90;;;;;;6211751;23;20225;-84
2023/11/09 01:06:55;;;;;;;7.50;4.57;;;4.50;99.90;;;;;;6215529;23;20025;-81
2023/11/09 01:09:45;;;;;;;7.68;4.63;;;4.50;1.00;;;;;;6216162;23;20099;-84
2023/11/09 01:12:32;;;;;;;8.77;4.18;;;4.50;1.00;;;;;;6213898;23;20028;-84
2023/11/09 01:15:22;;;;;;;7.25;4.47;;;4.60;99.90;;;;;;6211563;23;20027;-79
2023/11/09 01:18:12;;;;;;;5.85;4.18;;;4.70;99.90;;;;;;6212172;23;20344;-84
2023/11/09 01:21:01;;;;;;;5.82;4.00;;;4.80;1.00;;;;;;6216091;23;20033;-84
2023/11/09 01:23:51;;;;;;;7.55;3.88;;;4.80;99.90;;;;;;6212939;23;20029;-83
2023/11/09 01:26:38;;;;;;;5.15;4.00;;;4.70;99.90;;;;;;6218075;22;20039;-84
2023/11/09 01:29:26;;;;;;;6.03;4.18;;;4.70;99.90;;;;;;6213528;23;20031;-84
2023/11/09 01:32:13;;;;;;;6.95;4.18;;;4.70;99.90;;;;;;6215389;23;20569;-84
2023/11/09 01:35:01;;;;;;;5.78;4.07;;;4.60;99.90;;;;;;6224430;23;20015;-85
2023/11/09 01:37:51;;;;;;;4.80;4.15;;;4.60;99.90;;;;;;6236812;23;20020;-82
2023/11/09 01:40:39;;;;;;;6.70;4.30;;;4.50;99.90;;;;;;6235019;23;20021;-84
2023/11/09 01:43:28;;;;;;;7.03;4.28;;;4.30;1.00;;;;;;6230081;23;20063;-84
2023/11/09 01:46:18;;;;;;;5.40;4.05;;;4.20;6.80;;;;;;6231761;22;20090;-82
2023/11/09 01:49:06;;;;;;;6.85;4.40;;;4.10;99.90;;;;;;6229192;23;20103;-85
2023/11/09 01:51:56;;;;;;;7.35;5.38;;;4.00;99.90;;;;;;6220150;23;20021;-81
2023/11/09 01:54:45;;;;;;;6.03;4.43;;;3.80;1.00;;;;;;6218810;23;20025;-82
2023/11/09 01:57:34;;;;;;;7.18;4.72;;;3.60;76.50;;;;;;6215047;23;20032;-84
2023/11/09 02:00:23;;;;;;;7.32;4.45;;;3.60;99.90;;;;;;6215925;23;20039;-84
2023/11/09 02:03:15;;;;;;;8.27;4.95;;;3.60;99.90;;;;;;6215696;23;20095;-83
2023/11/09 02:06:02;;;;;;;8.10;4.47;;;3.70;1.00;;;;;;6215583;23;20029;-83
2023/11/09 02:08:51;;;;;;;8.30;4.85;;;3.70;1.00;;;;;;6212938;23;20300;-82
2023/11/09 02:11:39;;;;;;;5.43;3.88;;;3.90;99.90;;;;;;6213628;23;20028;-82
2023/11/09 02:14:28;;;;;;;7.05;4.10;;;4.10;99.90;;;;;;6215127;23;20035;-82
2023/11/09 02:17:18;;;;;;;6.57;3.60;;;4.30;1.00;;;;;;6213770;23;20059;-82
2023/11/09 02:20:06;;;;;;;7.38;4.13;;;4.40;99.90;;;;;;6219444;23;20284;-83
2023/11/09 02:22:57;;;;;;;5.95;3.63;;;4.50;99.90;;;;;;6227369;22;20082;-84
2023/11/09 02:25:46;;;;;;;5.88;3.40;;;4.50;99.90;;;;;;6219437;23;20063;-82
2023/11/09 02:28:34;;;;;;;3.85;3.22;;;4.60;1.00;;;;;;6219584;23;20073;-83
2023/11/09 02:31:23;;;;;;;6.10;3.33;;;4.90;99.90;;;;;;6212432;23;20032;-79
2023/11/09 02:34:12;;;;;;;6.10;3.28;;;5.10;79.90;;;;;;6215782;23;20364;-81
2023/11/09 02:37:01;;;;;;;6.13;3.83;;;5.20;1.00;;;;;;6216666;23;20021;-84
2023/11/09 02:39:53;;;;;;;4.53;3.15;;;5.00;1.00;;;;;;6225806;23;20039;-83
2023/11/09 02:42:40;;;;;;;4.13;2.80;;;5.00;1.00;;;;;;6235010;23;20033;-79
2023/11/09 02:45:28;;;;;;;6.88;3.70;;;4.90;1.00;;;;;;6228367;23;20445;-80
2023/11/09 02:48:15;;;;;;;4.57;3.70;;;5.00;1.00;;;;;;6215414;23;20025;-85
2023/11/09 02:51:05;;;;;;;5.50;3.72;;;4.90;1.00;;;;;;6214181;23;20036;-84
2023/11/09 02:53:54;;;;;;;8.43;4.25;;;4.80;99.90;;;;;;6191757;23;20043;-83
2023/11/09 02:56:42;;;;;;;4.40;3.45;;;4.70;1.00;;;;;;6214377;23;20407;-82
2023/11/09 02:59:29;;;;;;;5.25;3.83;;;4.70;1.00;;;;;;6213780;23;20334;-86
2023/11/09 03:02:16;;;;;;;6.22;4.00;;;4.60;1.00;;;;;;6218629;22;20044;-84
2023/11/09 03:05:09;;;;;;;10.90;4.47;;;4.60;1.00;;;;;;6212364;23;20394;-84
2023/11/09 03:07:56;;;;;;;5.38;3.95;;;4.50;1.00;;;;;;6214421;22;20040;-83
2023/11/09 03:10:43;;;;;;;4.93;3.95;;;4.60;1.00;;;;;;6214541;22;20103;-84
2023/11/09 03:13:33;;;;;;;7.53;3.58;;;4.70;1.00;;;;;;6211376;23;20118;-83
2023/11/09 03:16:21;;;;;;;10.35;3.97;;;4.80;99.90;;;;;;6213329;23;20025;-83
2023/11/09 03:19:09;;;;;;;4.13;3.40;;;4.90;99.90;;;;;;6214635;23;20104;-83
2023/11/09 03:21:58;;;;;;;7.78;3.97;;;4.90;99.90;;;;;;6211339;23;20099;-80
2023/11/09 03:24:48;;;;;;;5.28;3.65;;;5.00;99.90;;;;;;6216461;22;20318;-81
2023/11/09 03:27:36;;;;;;;7.53;3.50;;;5.00;99.90;;;;;;6215753;23;20039;-83
2023/11/09 03:30:23;;;;;;;6.55;3.50;;;5.10;99.90;;;;;;6215651;22;20477;-83
2023/11/09 03:33:10;;;;;;;8.32;3.70;;;5.10;99.90;;;;;;6214431;22;20024;-83
2023/11/09 03:35:58;;;;;;;8.70;4.22;;;5.10;99.90;;;;;;6211896;23;20025;-84
2023/11/09 03:38:48;;;;;;;7.00;4.18;;;5.10;99.90;;;;;;6215974;22;20068;-84
2023/11/09 03:41:38;;;;;;;5.00;3.83;;;5.10;99.90;;;;;;6211456;23;20028;-83
2023/11/09 03:44:29;;;;;;;8.90;4.25;;;5.10;99.90;;;;;;6212967;23;20039;-84
2023/11/09 03:47:16;;;;;;;9.15;4.13;;;5.00;99.90;;;;;;6210590;23;20390;-83
2023/11/09 03:50:04;;;;;;;8.05;4.45;;;5.00;99.90;;;;;;6213381;23;20035;-84
2023/11/09 03:52:51;;;;;;;5.28;4.25;;;4.80;99.90;;;;;;6213530;23;20032;-84
2023/11/09 03:55:39;;;;;;;7.38;4.53;;;4.90;99.90;;;;;;6213429;23;20048;-83
2023/11/09 03:58:26;;;;;;;8.15;4.93;;;4.90;99.90;;;;;;6214523;23;20124;-83
2023/11/09 04:01:14;;;;;;;8.05;4.60;;;5.00;99.90;;;;;;6215284;23;20043;-83
2023/11/09 04:04:02;;;;;;;7.68;4.60;;;4.80;99.90;;;;;;6215497;23;20059;-80
2023/11/09 04:06:49;;;;;;;6.07;4.40;;;4.70;99.90;;;;;;6215539;23;20047;-84
2023/11/09 04:09:39;;;;;;;9.95;5.40;;;4.70;99.90;;;;;;6219709;23;20021;-85
2023/11/09 04:12:26;;;;;;;13.18;5.55;;;4.60;1.00;;;;;;6224828;22;20051;-82
2023/11/09 04:15:16;;;;;;;15.90;4.95;;;4.60;1.00;;;;;;6221944;23;20027;-84
2023/11/09 04:18:05;;;;;;;10.27;6.18;;;4.60;1.00;;;;;;6212680;23;20024;-82
2023/11/09 04:20:57;;;;;;;8.43;5.25;;;4.60;9.00;;;;;;6214310;23;20028;-84
2023/11/09 04:23:49;;;;;;;8.93;5.47;;;4.60;50.40;;;;;;6212520;23;20029;-84
2023/11/09 04:26:42;;;;;;;8.27;5.20;;;4.70;21.50;;;;;;6215812;22;20025;-85
2023/11/09 04:29:30;;;;;;;;;;;4.80;1.00;;;;;;6215723;22;20051;-82
2023/11/09 04:32:20;;;;;;;8.55;5.50;;;4.90;1.00;;;;;;6210786;23;20283;-83
2023/11/09 04:35:08;;;;;;;8.60;5.57;;;4.90;1.00;;;;;;6213201;23;20036;-84
2023/11/09 04:37:55;;;;;;;10.23;5.45;;;4.90;1.00;;;;;;6211063;23;20031;-83
2023/11/09 04:40:46;;;;;;;8.52;5.82;;;4.90;1.00;;;;;;6214758;23;20020;-80
2023/11/09 04:43:37;;;;;;;9.15;5.53;;;5.00;1.00;;;;;;6214321;23;20067;-82
2023/11/09 04:46:24;;;;;;;8.27;5.30;;;5.10;99.90;;;;;;6213514;23;20024;-82
2023/11/09 04:49:12;;;;;;;8.45;5.75;;;5.10;99.90;;;;;;6214267;23;20033;-82
2023/11/09 04:52:04;;;;;;;9.05;6.10;;;5.20;99.90;;;;;;6214620;23;20327;-79
2023/11/09 04:55:07;;;;;;;11.85;5.88;;;5.10;99.90;;;;;;6212658;23;20114;-82
2023/11/09 05:07:15;;;;;;;8.27;5.65;;;5.20;99.90;;;;;;6225607;23;20035;-81
2023/11/09 05:10:03;;;;;;;8.70;5.47;;;5.30;99.90;;;;;;6235902;23;20076;-83
2023/11/09 05:12:50;;;;;;;10.57;5.80;;;5.30;99.90;;;;;;6225685;22;20078;-80
2023/11/09 05:15:40;;;;;;;8.52;5.47;;;5.30;99.90;;;;;;6218418;23;20530;-83
2023/11/09 05:18:27;;;;;;;9.32;5.50;;;5.30;70.70;;;;;;6222297;23;20021;-82
2023/11/09 05:21:17;;;;;;;7.85;5.47;;;5.40;1.00;;;;;;6220195;23;20024;-84
2023/11/09 05:24:04;;;;;;;8.02;4.78;;;5.30;1.00;;;;;;6216539;23;20024;-83
2023/11/09 05:26:54;;;;;;;7.50;4.50;;;5.40;1.00;;;;;;6219106;23;20115;-84
2023/11/09 05:29:46;;;;;;;8.65;4.75;;;5.40;1.00;;;;;;6219120;23;20063;-84
2023/11/09 05:32:41;;;;;;;9.18;4.82;;;5.40;99.90;;;;;;6218045;22;20125;-80
2023/11/09 05:35:28;;;;;;;7.88;4.80;;;5.30;1.00;;;;;;6217023;23;20328;-82
2023/11/09 05:38:16;;;;;;;8.25;5.07;;;5.30;1.00;;;;;;6214116;23;20215;-81
2023/11/09 05:41:06;;;;;;;7.57;4.55;;;5.30;1.00;;;;;;6213750;23;20035;-82
2023/11/09 05:43:54;;;;;;;8.32;4.80;;;5.20;1.00;;;;;;6213317;23;20029;-82
2023/11/09 05:46:41;;;;;;;7.25;5.07;;;5.10;1.00;;;;;;6212642;23;20031;-85
2023/11/09 05:49:28;;;;;;;9.65;5.50;;;5.00;1.00;;;;;;6213649;23;20407;-82
2023/11/09 05:52:16;;;;;;;8.23;4.88;;;5.00;1.00;;;;;;6215703;22;20449;-83
2023/11/09 05:55:05;;;;;;;10.77;5.43;;;5.00;4.70;;;;;;6216957;23;20447;-79
2023/11/09 05:57:52;;;;;;;7.38;5.35;;;5.00;37.90;;;;;;6211937;23;20032;-82
2023/11/09 06:00:39;;;;;;;6.28;4.80;;;5.00;41.10;;;;;;6211455;23;20036;-83
2023/11/09 06:03:27;;;;;;;5.07;4.20;;;5.00;20.00;;;;;;6213549;23;20445;-82
2023/11/09 06:06:16;;;;;;;7.93;4.47;;;5.00;1.00;;;;;;6216679;23;20024;-84
2023/11/09 06:09:06;;;;;;;6.28;4.90;;;5.10;1.00;;;;;;6213717;23;20050;-83
2023/11/09 06:11:56;;;;;;;7.65;4.47;;;5.10;1.00;;;;;;6216448;22;20079;-81
2023/11/09 06:14:46;;;;;;;6.45;4.28;;;5.20;1.00;;;;;;6217454;22;20025;-80
2023/11/09 06:17:36;;;;;;;6.22;3.88;;;5.30;1.00;;;;;;6217347;22;20384;-84
2023/11/09 06:20:23;;;;;;;7.10;4.32;;;5.30;99.90;;;;;;6215583;23;20025;-84
2023/11/09 06:23:11;;;;;;;6.45;4.32;;;5.30;99.90;;;;;;6221365;22;20039;-84
2023/11/09 06:25:58;;;;;;;10.95;7.00;;;5.30;99.90;;;;;;6213935;23;20039;-85
2023/11/09 06:28:51;;;;;;;10.25;4.97;;;5.20;99.90;;;;;;6215433;23;20032;-85
2023/11/09 06:31:38;;;;;;;6.25;4.18;;;5.20;99.90;;;;;;6215744;22;20031;-85
2023/11/09 06:34:26;;;;;;;6.55;4.50;;;5.20;99.90;;;;;;6214762;23;20095;-85
2023/11/09 06:37:14;;;;;;;9.85;4.82;;;5.20;99.90;;;;;;6217065;22;20362;-83
2023/11/09 06:40:10;;;;;;;7.35;4.40;;;5.30;99.90;;;;;;6215417;23;20052;-82
2023/11/09 06:42:59;;;;;;;7.63;4.60;;;5.20;99.90;;;;;;6215503;23;20035;-81
2023/11/09 06:45:46;;;;;;;6.88;4.60;;;5.20;99.90;;;;;;6217122;23;20316;-85
2023/11/09 06:48:34;;;;;;;5.57;4.65;;;5.20;99.90;;;;;;6214640;23;20431;-85
2023/11/09 06:51:21;;;;;;;9.82;5.20;;;5.20;99.90;;;;;;6214602;23;20024;-79
2023/11/09 06:54:08;;;;;;;8.25;5.28;;;5.20;99.90;;;;;;6217665;23;20265;-84
2023/11/09 06:56:55;;;;;;;7.43;4.38;;;5.30;99.90;;;;;;6215173;23;20078;-85
2023/11/09 06:59:43;;;;;;;7.20;4.85;;;5.30;99.90;;;;;;6215390;22;20024;-86
2023/11/09 07:02:31;;;;;;;9.52;4.75;;;5.40;99.90;;;;;;6215302;23;20027;-87
2023/11/09 07:05:24;;;;;;;6.65;4.68;;;5.50;99.90;;;;;;6211883;23;20071;-86
2023/11/09 07:08:13;;;;;;;7.95;4.80;;;5.50;99.90;;;;;;6213462;23;20272;-86
2023/11/09 07:11:03;;;;;;;8.02;5.35;;;5.50;99.90;;;;;;6214284;23;20407;-86
2023/11/09 07:13:52;;;;;;;9.18;4.88;;;5.50;99.90;;;;;;6215483;23;20044;-84
2023/11/09 07:16:40;;;;;;;9.82;4.82;;;5.50;99.90;;;;;;6212599;23;20108;-84
2023/11/09 07:19:28;;;;;;;8.48;4.50;;;5.50;99.90;;;;;;6214097;23;20035;-84
2023/11/09 07:22:21;;;;;;;8.52;4.63;;;5.60;99.90;;;;;;6215485;22;20024;-85
2023/11/09 07:25:10;;;;;;;6.10;3.88;;;5.70;99.90;;;;;;6214158;23;20104;-86
2023/11/09 07:28:00;;;;;;;8.07;4.63;;;5.80;99.90;;;;;;6213360;23;20029;-84
2023/11/09 07:30:48;;;;;;;5.75;3.85;;;5.80;99.90;;;;;;6217528;23;20025;-82
2023/11/09 07:33:35;;;;;;;8.20;3.83;;;5.80;99.90;;;;;;6219310;23;20036;-86
2023/11/09 07:36:23;;;;;;;6.95;3.92;;;5.80;99.90;;;;;;6219850;23;20576;-85
2023/11/09 07:39:10;;;;;;;5.22;3.97;;;5.70;99.90;;;;;;6215884;23;20119;-85
2023/11/09 07:41:59;;;;;;;8.45;3.90;;;5.80;99.90;;;;;;6217747;22;20344;-84
2023/11/09 07:44:49;;;;;;;6.80;4.05;;;5.80;1.00;;;;;;6219670;23;20358;-79
2023/11/09 07:47:39;;;;;;;15.18;4.85;;;5.70;1.00;;;;;;6215121;23;20419;-84
2023/11/09 07:50:30;;;;;;;6.72;4.93;;;5.70;1.00;;;;;;6215077;23;20122;-85
2023/11/09 07:53:17;;;;;;;7.28;4.28;;;5.80;1.00;;;;;;6215110;23;20035;-84
2023/11/09 07:56:05;;;;;;;5.70;4.65;;;5.80;1.00;;;;;;6216818;22;20024;-85
2023/11/09 07:58:55;;;;;;;8.65;4.43;;;5.90;1.00;;;;;;6215505;23;20038;-85
2023/11/09 08:01:43;;;;;;;6.18;4.55;;;5.90;1.00;;;;;;6215167;23;20050;-85
2023/11/09 08:04:31;;;;;;;8.18;4.13;;;5.80;1.00;;;;;;6217335;22;20070;-84
2023/11/09 08:07:19;;;;;;;5.45;3.83;;;5.90;1.00;;;;;;6214585;23;20148;-80
2023/11/09 08:10:07;;;;;;;7.55;4.70;;;6.00;1.00;;;;;;6217205;22;20114;-85
2023/11/09 08:12:56;;;;;;;9.70;4.35;;;6.00;99.90;;;;;;6213116;23;20112;-84
2023/11/09 08:15:46;;;;;;;5.85;3.72;;;6.10;99.90;;;;;;6215735;22;20020;-85
2023/11/09 08:18:34;;;;;;;5.32;3.75;;;6.20;99.90;;;;;;6215355;23;20025;-79
2023/11/09 08:21:25;;;;;;;7.93;3.67;;;6.40;99.90;;;;;;6218635;23;20025;-83
2023/11/09 08:24:12;;;;;;;6.32;3.70;;;6.40;99.90;;;;;;6212157;23;20304;-84
2023/11/09 08:26:59;;;;;;;6.25;3.83;;;6.50;99.90;;;;;;6211494;23;20029;-84
2023/11/09 08:29:51;;;;;;;4.03;3.47;;;6.50;66.90;;;;;;6216360;23;20028;-84
2023/11/09 08:32:41;;;;;;;7.00;3.85;;;6.60;1.00;;;;;;6217691;22;20061;-84
2023/11/09 08:35:33;;;;;;;6.57;3.78;;;6.70;1.00;;;;;;6218001;23;20048;-82
2023/11/09 08:38:22;;;;;;;6.55;3.70;;;6.70;1.00;;;;;;6214528;23;20029;-85
2023/11/09 08:41:11;;;;;;;5.25;3.88;;;6.80;1.00;;;;;;6215616;23;20028;-85
2023/11/09 08:43:58;;;;;;;6.40;3.42;;;6.90;1.00;;;;;;6216758;22;20044;-84
2023/11/09 08:46:53;;;;;;;4.70;3.10;;;6.90;1.00;;;;;;6216085;23;20024;-83
2023/11/09 08:49:43;;;;;;;7.70;3.35;;;7.00;99.90;;;;;;6214143;23;20040;-83
2023/11/09 08:52:31;;;;;;;4.55;3.13;;;7.20;99.90;;;;;;6216741;23;20028;-83
2023/11/09 08:55:20;;;;;;;4.35;3.10;;;7.30;99.90;;;;;;6212715;23;20052;-84
2023/11/09 08:58:10;;;;;;;3.90;3.13;;;7.40;99.90;;;;;;6214061;23;20048;-85
2023/11/09 09:01:04;;;;;;;6.15;3.20;;;7.60;99.90;;;;;;6215323;23;20025;-82
2023/11/09 09:03:55;;;;;;;5.03;3.33;;;7.80;95.30;;;;;;6217178;23;20435;-84
2023/11/09 09:06:42;;;;;;;5.10;2.70;;;8.00;1.00;;;;;;6218350;22;20035;-82
2023/11/09 09:09:33;;;;;;;8.13;3.05;;;8.30;1.00;;;;;;6213260;23;20025;-78
2023/11/09 09:12:33;;;;;;;5.18;3.15;;;8.50;1.00;;;;;;6216680;22;20028;-76
2023/11/09 09:15:20;;;;;;;5.22;3.00;;;8.50;99.90;;;;;;6215238;23;20029;-83
2023/11/09 09:18:10;;;;;;;5.90;2.60;;;8.50;99.90;;;;;;6215247;23;20340;-80
2023/11/09 09:20:58;;;;;;;7.82;2.60;;;8.50;99.90;;;;;;6216134;23;20036;-82
2023/11/09 09:23:49;;;;;;;4.50;2.17;;;8.50;99.90;;;;;;6216600;23;20170;-83
2023/11/09 09:26:37;;;;;;;3.58;2.38;;;8.30;99.90;;;;;;6216235;23;20366;-81
2023/11/09 09:29:24;;;;;;;3.17;2.42;;;8.30;99.90;;;;;;6217242;22;20028;-82
2023/11/09 09:32:16;;;;;;;2.33;1.90;;;8.20;99.90;;;;;;6214666;23;20024;-82
2023/11/09 09:35:10;;;;;;;2.92;2.25;;;8.30;99.90;;;;;;6215506;22;20261;-83
2023/11/09 09:38:05;;;;;;;3.35;2.08;;;8.30;99.90;;;;;;6212986;23;20020;-82
2023/11/09 09:40:54;;;;;;;2.72;2.00;;;8.40;99.90;;;;;;6214913;23;20036;-83
2023/11/09 09:43:42;;;;;;;5.00;1.80;;;8.50;99.90;;;;;;6215847;22;20029;-83
2023/11/09 09:46:35;;;;;;;3.10;1.92;;;8.60;99.90;;;;;;6212998;23;20038;-82
2023/11/09 09:49:25;;;;;;;2.65;2.13;;;8.60;99.90;;;;;;6215078;23;20029;-83
2023/11/09 09:52:15;;;;;;;1.98;1.63;;;8.60;99.90;;;;;;6216530;22;20024;-83
2023/11/09 09:55:05;;;;;;;6.05;1.92;;;8.70;99.90;;;;;;6215528;23;20122;-79
2023/11/09 09:57:59;;;;;;;2.55;1.88;;;8.90;99.90;;;;;;6218248;22;20031;-84
2023/11/09 10:00:49;;;;;;;2.33;1.63;;;8.90;99.90;;;;;;6217743;22;20040;-83
2023/11/09 10:03:38;;;;;;;1.77;1.38;;;8.90;99.90;;;;;;6212872;23;20518;-83
2023/11/09 10:06:28;;;;;;;1.88;1.63;;;9.00;99.90;;;;;;6215302;23;20047;-78
2023/11/09 10:09:24;;;;;;;7.85;1.73;;;9.10;99.90;;;;;;6215081;23;20024;-84
2023/11/09 10:12:14;;;;;;;4.85;1.27;;;9.20;99.90;;;;;;6216255;23;20099;-85
2023/11/09 10:15:04;;;;;;;4.32;1.90;;;9.30;99.90;;;;;;6215603;23;20356;-83
2023/11/09 10:17:54;;;;;;;1.92;1.45;;;9.10;99.90;;;;;;6215046;23;20032;-79
2023/11/09 10:21:12;;;;;;;2.63;1.55;;;9.10;99.90;;;;;;6216155;23;20031;-85
2023/11/09 10:24:01;;;;;;;1.75;1.40;;;9.10;99.90;;;;;;6212811;23;20031;-85
2023/11/09 10:26:51;;;;;;;3.22;1.52;;;9.20;99.90;;;;;;6213115;23;20106;-85
2023/11/09 10:29:38;;;;;;;2.63;1.30;;;9.30;99.90;;;;;;6212208;23;20112;-83
2023/11/09 10:32:35;;;;;;;2.97;1.40;;;9.40;99.90;;;;;;6214081;23;20171;-84
2023/11/09 10:35:22;;;;;;;2.65;1.30;;;9.50;99.90;;;;;;6210488;23;20020;-83
2023/11/09 10:38:12;;;;;;;1.65;1.30;;;9.60;99.90;;;;;;6215389;23;20032;-83
2023/11/09 10:41:01;;;;;;;1.23;1.13;;;9.60;99.90;;;;;;6213796;23;20032;-83
2023/11/09 10:44:10;;;;;;;1.85;1.30;;;9.70;99.90;;;;;;6212450;23;20058;-83
2023/11/09 10:46:59;;;;;;;3.00;1.20;;;9.90;99.90;;;;;;6211224;23;20123;-80
2023/11/09 10:49:58;;;;;;;1.90;1.10;;;10.10;99.90;;;;;;6213811;23;20434;-84
2023/11/09 10:52:51;;;;;;;4.93;1.73;;;10.30;99.90;;;;;;6215813;22;20021;-83
2023/11/09 10:55:43;;;;;;;1.70;1.23;;;10.70;99.90;;;;;;6215731;22;20032;-82
2023/11/09 10:58:33;;;;;;;1.58;1.48;;;10.90;99.90;;;;;;6215102;23;20111;-84
2023/11/09 11:01:29;;;;;;;1.90;1.40;;;12.20;99.90;;;;;;6214808;23;20063;-84
2023/11/09 11:04:18;;;;;;;1.88;1.20;;;13.00;1.00;;;;;;6216380;22;20087;-84
2023/11/09 11:07:12;;;;;;;2.72;1.38;;;12.00;1.00;;;;;;6215680;23;20032;-85
2023/11/09 11:10:03;;;;;;;4.68;1.55;;;11.30;1.00;;;;;;6217275;22;20028;-85
2023/11/09 11:12:53;;;;;;;2.15;1.48;;;11.20;1.00;;;;;;6214621;23;20035;-79
2023/11/09 11:15:53;;;;;;;1.48;1.20;;;11.20;1.00;;;;;;6214407;23;20043;-85
2023/11/09 11:18:51;;;;;;;1.73;1.25;;;11.00;1.00;;;;;;6218927;22;20024;-85
2023/11/09 11:21:55;;;;;;;1.30;1.20;;;11.00;1.00;;;;;;6219378;22;20366;-85
2023/11/09 11:24:53;;;;;;;2.13;1.27;;;11.00;1.00;;;;;;6216806;23;20052;-83
2023/11/09 11:27:50;;;;;;;3.90;1.40;;;11.30;1.00;;;;;;6217304;22;20020;-85
2023/11/09 11:30:41;;;;;;;1.38;1.00;;;11.80;1.00;;;;;;6215345;23;20051;-85
2023/11/09 11:33:28;;;;;;;2.15;0.98;;;12.50;1.00;;;;;;6216889;23;20086;-81
2023/11/09 11:36:26;;;;;;;2.42;0.90;;;12.50;1.00;;;;;;6218249;23;20134;-85
2023/11/09 11:39:38;;;;;;;0.85;0.75;;;12.10;1.00;;;;;;6216287;23;20427;-84
2023/11/09 11:42:28;;;;;;;2.03;1.00;;;11.60;1.00;;;;;;6231220;22;20028;-85
2023/11/09 11:45:21;;;;;;;1.60;1.00;;;11.20;1.00;;;;;;6219596;23;20032;-84
2023/11/09 11:48:19;;;;;;;1.48;1.00;;;11.00;1.00;;;;;;6217501;22;20032;-87
2023/11/09 11:51:09;;;;;;;2.33;1.10;;;10.90;1.00;;;;;;6215508;23;20080;-87
2023/11/09 11:54:05;;;;;;;1.42;1.08;;;10.90;1.00;;;;;;6216112;22;20091;-85
2023/11/09 11:56:52;;;;;;;1.85;1.10;;;11.00;1.00;;;;;;6216163;23;20384;-85
2023/11/09 11:59:41;;;;;;;1.33;1.20;;;11.10;1.00;;;;;;6214646;23;20099;-84
2023/11/09 12:02:28;;;;;;;3.75;0.85;;;11.20;1.00;;;;;;6217224;22;20421;-84
2023/11/09 12:05:18;;;;;;;2.28;0.73;;;11.60;1.00;;;;;;6215035;23;20035;-83
2023/11/09 12:08:12;;;;;;;3.65;0.70;;;12.40;1.00;;;;;;6218124;22;20024;-83
2023/11/09 12:11:03;;;;;;;0.80;0.60;;;12.20;1.00;;;;;;6214945;23;20431;-84
2023/11/09 12:13:51;;;;;;;0.77;0.77;;;11.90;1.00;;;;;;6216427;23;20099;-85
2023/11/09 12:16:39;;;;;;;1.17;0.60;;;11.90;1.00;;;;;;6217916;23;20031;-84
2023/11/09 12:19:29;;;;;;;1.00;0.80;;;11.70;1.00;;;;;;6216534;23;20024;-84
2023/11/09 12:22:17;;;;;;;2.15;0.70;;;11.40;1.00;;;;;;6216243;23;20039;-86
2023/11/09 12:25:11;;;;;;;0.57;0.50;;;11.40;1.00;;;;;;6218286;22;20083;-81
2023/11/09 12:28:01;;;;;;;0.75;0.50;;;11.40;1.00;;;;;;6217748;23;20024;-81
2023/11/09 12:30:50;;;;;;;2.70;0.68;;;11.50;1.00;;;;;;6221874;23;20110;-86
2023/11/09 12:34:09;;;;;;;0.95;0.60;;;11.80;1.00;;;;;;6215830;23;20025;-86
2023/11/09 12:37:00;;;;;;;0.82;0.50;;;12.20;1.00;;;;;;6218139;23;20104;-85
2023/11/09 12:39:51;;;;;;;1.15;0.60;;;12.60;1.00;;;;;;6224121;23;20021;-83
2023/11/09 12:42:39;;;;;;;0.73;0.50;;;12.20;1.00;;;;;;6226557;23;20047;-82
2023/11/09 12:45:26;;;;;;;0.88;0.57;;;12.40;1.00;;;;;;6226219;23;20327;-83
2023/11/09 12:48:14;;;;;;;0.60;0.60;;;12.30;1.00;;;;;;6225814;22;20024;-84
2023/11/09 12:51:04;;;;;;;0.70;0.57;;;12.30;1.00;;;;;;6230365;22;20443;-84
2023/11/09 12:53:52;;;;;;;0.47;0.47;;;12.00;1.00;;;;;;6230189;23;20024;-82
2023/11/09 12:56:44;;;;;;;0.70;0.55;;;11.80;1.00;;;;;;6235809;23;20024;-84
2023/11/09 12:59:34;;;;;;;1.15;0.60;;;11.70;1.00;;;;;;6236460;22;20123;-86
2023/11/09 13:02:34;;;;;;;3.03;0.65;;;11.50;1.00;;;;;;6234819;23;20024;-82
2023/11/09 13:05:31;;;;;;;1.85;0.80;;;11.50;1.00;;;;;;6233951;23;20028;-85
2023/11/09 13:08:20;;;;;;;0.45;0.45;;;11.50;1.00;;;;;;6231762;23;20084;-83
2023/11/09 13:11:13;;;;;;;0.90;0.60;;;11.50;1.00;;;;;;6230444;23;20024;-84
2023/11/09 13:14:07;;;;;;;0.73;0.65;;;11.40;1.00;;;;;;6229974;23;20056;-85
2023/11/09 13:16:55;;;;;;;0.50;0.50;;;11.40;1.00;;;;;;6230643;23;20034;-85
2023/11/09 13:19:50;;;;;;;0.50;0.50;;;11.30;1.00;;;;;;6229505;23;20115;-84
2023/11/09 13:22:39;;;;;;;0.50;0.50;;;11.30;1.00;;;;;;6228570;22;20072;-87
2023/11/09 13:25:28;;;;;;;0.40;0.40;;;11.30;1.00;;;;;;6221235;23;20048;-85
2023/11/09 13:28:18;;;;;;;1.25;0.65;;;11.10;1.00;;;;;;6218340;22;20647;-85
2023/11/09 13:31:17;;;;;;;1.85;1.52;;;11.10;1.00;;;;;;6231818;23;20020;-82
2023/11/09 13:34:08;;;;;;;0.60;0.60;;;10.90;1.00;;;;;;6232439;23;20020;-78
2023/11/09 13:36:58;;;;;;;1.23;0.65;;;10.90;1.00;;;;;;6233452;23;20072;-80
2023/11/09 13:40:07;;;;;;;1.20;0.90;;;10.80;1.00;;;;;;6234596;23;20024;-84
2023/11/09 13:43:08;;;;;;;1.83;0.50;;;10.80;1.00;;;;;;6233718;23;20055;-82
2023/11/09 13:45:56;;;;;;;2.08;0.70;;;10.80;1.00;;;;;;6233609;23;20547;-81
2023/11/09 13:48:45;;;;;;;0.60;0.52;;;10.70;1.00;;;;;;6235353;22;20062;-80
2023/11/09 13:51:35;;;;;;;0.50;0.50;;;10.70;1.00;;;;;;6234706;23;20096;-80
2023/11/09 13:54:30;;;;;;;0.68;0.50;;;10.60;1.00;;;;;;6231871;22;20029;-79
2023/11/09 13:57:19;;;;;;;0.50;0.50;;;10.50;1.00;;;;;;6229295;23;20035;-84
2023/11/09 14:00:12;;;;;;;1.85;0.60;;;10.50;1.00;;;;;;6230806;22;20667;-85
2023/11/09 14:03:00;;;;;;;0.55;0.55;;;10.50;1.00;;;;;;6227195;23;20080;-85
2023/11/09 14:05:48;;;;;;;0.95;0.65;;;10.40;1.00;;;;;;6220947;23;20029;-83
2023/11/09 14:08:39;;;;;;;0.50;0.50;;;10.40;1.00;;;;;;6216192;23;20348;-85
2023/11/09 14:11:27;;;;;;;1.55;0.50;;;10.40;1.00;;;;;;6216716;23;20034;-85
2023/11/09 14:14:16;;;;;;;0.70;0.70;;;10.40;1.00;;;;;;6215146;23;20021;-84
2023/11/09 14:17:15;;;;;;;0.70;0.70;;;10.30;1.00;;;;;;6211577;23;20020;-84
2023/11/09 14:20:12;;;;;;;1.10;0.85;;;10.30;1.00;;;;;;6214076;23;20052;-85
2023/11/09 14:23:04;;;;;;;1.30;0.50;;;10.20;1.00;;;;;;6214742;23;20112;-86
2023/11/09 14:25:54;;;;;;;0.73;0.73;;;10.20;1.00;;;;;;6216621;22;20029;-83
2023/11/09 14:28:42;;;;;;;1.08;0.60;;;10.20;1.00;;;;;;6214403;23;20036;-85
2023/11/09 14:31:36;;;;;;;0.60;0.60;;;10.10;1.00;;;;;;6214207;23;20024;-83
2023/11/09 14:34:27;;;;;;;1.60;0.70;;;9.90;1.00;;;;;;6214313;23;20100;-84
2023/11/09 14:37:16;;;;;;;0.70;0.70;;;9.70;19.20;;;;;;6213628;23;20068;-83
2023/11/09 14:40:13;;;;;;;0.88;0.70;;;9.60;90.20;;;;;;6220749;23;20405;-84
2023/11/09 14:43:02;;;;;;;1.83;0.90;;;9.50;99.90;;;;;;6214496;22;20115;-80
2023/11/09 14:46:04;;;;;;;1.88;0.82;;;9.40;99.90;;;;;;6215077;23;20139;-79
2023/11/09 14:48:56;;;;;;;1.52;0.80;;;9.20;99.90;;;;;;6217334;23;20091;-79
2023/11/09 14:51:53;;;;;;;1.35;0.90;;;9.10;37.30;;;;;;6217688;23;20174;-81
2023/11/09 14:54:40;;;;;;;0.77;0.70;;;9.00;85.10;;;;;;6218879;23;20086;-84
2023/11/09 14:57:28;;;;;;;0.60;0.60;;;8.80;1.00;;;;;;6216659;23;20043;-83
2023/11/09 15:00:20;;;;;;;3.20;0.93;;;8.70;1.00;;;;;;6216624;23;20431;-84
2023/11/09 15:03:13;;;;;;;0.70;0.70;;;8.60;99.90;;;;;;6214486;23;20344;-82
2023/11/09 15:06:09;;;;;;;1.17;1.00;;;8.50;99.90;;;;;;6218762;22;20056;-84
2023/11/09 15:09:09;;;;;;;1.05;0.95;;;8.50;1.00;;;;;;6215927;23;20366;-84
2023/11/09 15:11:58;;;;;;;0.85;0.70;;;8.40;99.90;;;;;;6214518;23;20052;-83